sensor_id;sensor_type;location;lat;lon;timestamp;P1;durP1;ratioP1;P2;durP2;ratioP2
12832;SDS011;6483;51.310;4.462;2022-12-18T00:01:17;102.57;;;37.83;;
12832;SDS011;6483;51.310;4.462;2022-12-18T00:03:43;91.97;;;34.90;;
12832;SDS011;6483;51.310;4.462;2022-12-18T00:06:10;91.67;;;34.67;;
12832;SDS011;6483;51.310;4.462;2022-12-18T00:08:36;88.57;;;34.50;;
12832;SDS011;6483;51.310;4.462;2022-12-18T00:11:03;90.07;;;38.03;;
12832;SDS011;6483;51.310;4.462;2022-12-18T00:13:30;100.77;;;37.13;;
12832;SDS011;6483;51.310;4.462;2022-12-18T00:15:55;89.43;;;34.47;;
12832;SDS011;6483;51.310;4.462;2022-12-18T00:18:33;93.30;;;36.17;;
12832;SDS011;6483;51.310;4.462;2022-12-18T00:21:04;92.17;;;35.63;;
12832;SDS011;6483;51.310;4.462;2022-12-18T00:23:46;97.70;;;36.60;;
12832;SDS011;6483;51.310;4.462;2022-12-18T00:26:14;102.27;;;36.23;;
12832;SDS011;6483;51.310;4.462;2022-12-18T00:28:42;92.43;;;35.87;;
12832;SDS011;6483;51.310;4.462;2022-12-18T00:31:10;88.43;;;35.70;;
12832;SDS011;6483;51.310;4.462;2022-12-18T00:33:37;100.97;;;35.50;;
12832;SDS011;6483;51.310;4.462;2022-12-18T00:36:04;90.50;;;34.43;;
12832;SDS011;6483;51.310;4.462;2022-12-18T00:38:35;90.60;;;34.53;;
12832;SDS011;6483;51.310;4.462;2022-12-18T00:41:02;83.70;;;35.17;;
12832;SDS011;6483;51.310;4.462;2022-12-18T00:43:31;99.20;;;34.93;;
12832;SDS011;6483;51.310;4.462;2022-12-18T00:45:58;87.93;;;32.87;;
12832;SDS011;6483;51.310;4.462;2022-12-18T00:48:24;85.93;;;34.23;;
12832;SDS011;6483;51.310;4.462;2022-12-18T00:50:51;90.87;;;34.27;;
12832;SDS011;6483;51.310;4.462;2022-12-18T00:53:20;95.30;;;34.23;;
12832;SDS011;6483;51.310;4.462;2022-12-18T00:55:51;85.87;;;33.87;;
12832;SDS011;6483;51.310;4.462;2022-12-18T00:58:17;79.20;;;33.27;;
12832;SDS011;6483;51.310;4.462;2022-12-18T01:00:44;83.03;;;32.83;;
12832;SDS011;6483;51.310;4.462;2022-12-18T01:03:12;82.43;;;33.00;;
12832;SDS011;6483;51.310;4.462;2022-12-18T01:05:39;79.90;;;32.30;;
12832;SDS011;6483;51.310;4.462;2022-12-18T01:08:08;79.97;;;33.80;;
12832;SDS011;6483;51.310;4.462;2022-12-18T01:10:34;85.10;;;32.63;;
12832;SDS011;6483;51.310;4.462;2022-12-18T01:13:05;83.80;;;32.33;;
12832;SDS011;6483;51.310;4.462;2022-12-18T01:15:32;76.07;;;31.50;;
12832;SDS011;6483;51.310;4.462;2022-12-18T01:17:58;82.87;;;30.67;;
12832;SDS011;6483;51.310;4.462;2022-12-18T01:20:24;85.10;;;32.83;;
12832;SDS011;6483;51.310;4.462;2022-12-18T01:22:52;75.73;;;27.70;;
12832;SDS011;6483;51.310;4.462;2022-12-18T01:25:18;73.63;;;32.17;;
12832;SDS011;6483;51.310;4.462;2022-12-18T01:27:44;88.20;;;31.17;;
12832;SDS011;6483;51.310;4.462;2022-12-18T01:30:11;77.47;;;29.57;;
12832;SDS011;6483;51.310;4.462;2022-12-18T01:32:40;75.37;;;30.93;;
12832;SDS011;6483;51.310;4.462;2022-12-18T01:35:06;71.20;;;29.23;;
12832;SDS011;6483;51.310;4.462;2022-12-18T01:37:32;78.90;;;29.90;;
12832;SDS011;6483;51.310;4.462;2022-12-18T01:39:58;68.33;;;29.30;;
12832;SDS011;6483;51.310;4.462;2022-12-18T01:42:24;76.60;;;30.10;;
12832;SDS011;6483;51.310;4.462;2022-12-18T01:50:36;74.30;;;29.40;;
12832;SDS011;6483;51.310;4.462;2022-12-18T01:53:14;73.50;;;29.40;;
12832;SDS011;6483;51.310;4.462;2022-12-18T01:55:55;70.20;;;27.27;;
12832;SDS011;6483;51.310;4.462;2022-12-18T01:58:24;60.27;;;25.43;;
12832;SDS011;6483;51.310;4.462;2022-12-18T02:01:13;66.33;;;26.87;;
12832;SDS011;6483;51.310;4.462;2022-12-18T02:03:42;72.43;;;29.07;;
12832;SDS011;6483;51.310;4.462;2022-12-18T02:09:09;64.27;;;26.43;;
12832;SDS011;6483;51.310;4.462;2022-12-18T02:12:05;68.00;;;27.33;;
12832;SDS011;6483;51.310;4.462;2022-12-18T02:14:59;60.10;;;26.33;;
12832;SDS011;6483;51.310;4.462;2022-12-18T02:18:01;65.53;;;25.27;;
12832;SDS011;6483;51.310;4.462;2022-12-18T02:21:00;63.20;;;25.13;;
12832;SDS011;6483;51.310;4.462;2022-12-18T02:23:53;58.27;;;25.20;;
12832;SDS011;6483;51.310;4.462;2022-12-18T02:26:51;59.53;;;24.30;;
12832;SDS011;6483;51.310;4.462;2022-12-18T02:29:23;64.03;;;25.83;;
12832;SDS011;6483;51.310;4.462;2022-12-18T02:31:53;62.37;;;26.97;;
12832;SDS011;6483;51.310;4.462;2022-12-18T02:34:22;53.90;;;24.63;;
12832;SDS011;6483;51.310;4.462;2022-12-18T02:36:53;56.07;;;23.83;;
12832;SDS011;6483;51.310;4.462;2022-12-18T02:39:23;54.80;;;24.20;;
12832;SDS011;6483;51.310;4.462;2022-12-18T02:41:57;61.20;;;26.17;;
12832;SDS011;6483;51.310;4.462;2022-12-18T02:44:27;59.00;;;24.37;;
12832;SDS011;6483;51.310;4.462;2022-12-18T02:47:13;57.30;;;23.37;;
12832;SDS011;6483;51.310;4.462;2022-12-18T02:52:39;59.50;;;23.57;;
12832;SDS011;6483;51.310;4.462;2022-12-18T02:58:35;55.93;;;23.80;;
12832;SDS011;6483;51.310;4.462;2022-12-18T03:04:25;53.67;;;21.90;;
12832;SDS011;6483;51.310;4.462;2022-12-18T03:06:57;52.10;;;20.83;;
12832;SDS011;6483;51.310;4.462;2022-12-18T03:09:29;53.83;;;22.90;;
12832;SDS011;6483;51.310;4.462;2022-12-18T03:12:10;48.30;;;22.53;;
12832;SDS011;6483;51.310;4.462;2022-12-18T03:14:57;47.70;;;21.57;;
12832;SDS011;6483;51.310;4.462;2022-12-18T03:18:04;49.93;;;21.37;;
12832;SDS011;6483;51.310;4.462;2022-12-18T03:20:41;52.87;;;22.50;;
12832;SDS011;6483;51.310;4.462;2022-12-18T03:23:14;50.03;;;23.03;;
12832;SDS011;6483;51.310;4.462;2022-12-18T03:25:43;49.47;;;21.60;;
12832;SDS011;6483;51.310;4.462;2022-12-18T03:28:12;51.63;;;21.53;;
12832;SDS011;6483;51.310;4.462;2022-12-18T03:30:42;48.30;;;22.37;;
12832;SDS011;6483;51.310;4.462;2022-12-18T03:33:30;55.13;;;22.97;;
12832;SDS011;6483;51.310;4.462;2022-12-18T03:36:07;46.53;;;21.83;;
12832;SDS011;6483;51.310;4.462;2022-12-18T03:38:36;53.97;;;24.07;;
12832;SDS011;6483;51.310;4.462;2022-12-18T03:44:10;53.53;;;22.03;;
12832;SDS011;6483;51.310;4.462;2022-12-18T03:52:22;44.67;;;20.33;;
12832;SDS011;6483;51.310;4.462;2022-12-18T03:54:58;43.13;;;21.13;;
12832;SDS011;6483;51.310;4.462;2022-12-18T03:57:27;49.17;;;21.30;;
12832;SDS011;6483;51.310;4.462;2022-12-18T03:59:56;47.40;;;22.53;;
12832;SDS011;6483;51.310;4.462;2022-12-18T04:02:29;46.67;;;21.33;;
12832;SDS011;6483;51.310;4.462;2022-12-18T04:04:58;51.43;;;22.50;;
12832;SDS011;6483;51.310;4.462;2022-12-18T04:07:27;45.20;;;19.60;;
12832;SDS011;6483;51.310;4.462;2022-12-18T04:09:53;45.37;;;21.90;;
12832;SDS011;6483;51.310;4.462;2022-12-18T04:12:26;50.47;;;21.40;;
12832;SDS011;6483;51.310;4.462;2022-12-18T04:15:11;41.07;;;19.27;;
12832;SDS011;6483;51.310;4.462;2022-12-18T04:18:22;48.73;;;20.90;;
12832;SDS011;6483;51.310;4.462;2022-12-18T04:20:29;48.97;;;21.40;;
12832;SDS011;6483;51.310;4.462;2022-12-18T04:22:55;46.97;;;20.80;;
12832;SDS011;6483;51.310;4.462;2022-12-18T04:25:21;40.57;;;20.20;;
12832;SDS011;6483;51.310;4.462;2022-12-18T04:27:46;47.43;;;22.37;;
12832;SDS011;6483;51.310;4.462;2022-12-18T04:30:25;45.80;;;20.50;;
12832;SDS011;6483;51.310;4.462;2022-12-18T04:32:53;46.60;;;21.57;;
12832;SDS011;6483;51.310;4.462;2022-12-18T04:35:19;41.27;;;20.03;;
12832;SDS011;6483;51.310;4.462;2022-12-18T04:37:44;35.13;;;19.00;;
12832;SDS011;6483;51.310;4.462;2022-12-18T04:40:10;43.17;;;19.27;;
12832;SDS011;6483;51.310;4.462;2022-12-18T04:42:36;38.90;;;18.27;;
12832;SDS011;6483;51.310;4.462;2022-12-18T04:45:04;41.57;;;19.43;;
12832;SDS011;6483;51.310;4.462;2022-12-18T04:47:31;47.20;;;19.73;;
12832;SDS011;6483;51.310;4.462;2022-12-18T04:49:57;43.23;;;18.93;;
12832;SDS011;6483;51.310;4.462;2022-12-18T04:52:25;46.40;;;19.20;;
12832;SDS011;6483;51.310;4.462;2022-12-18T04:54:51;40.43;;;18.73;;
12832;SDS011;6483;51.310;4.462;2022-12-18T04:57:17;39.07;;;18.70;;
12832;SDS011;6483;51.310;4.462;2022-12-18T04:59:43;40.70;;;18.50;;
12832;SDS011;6483;51.310;4.462;2022-12-18T05:02:09;35.40;;;16.17;;
12832;SDS011;6483;51.310;4.462;2022-12-18T05:04:35;35.43;;;17.37;;
12832;SDS011;6483;51.310;4.462;2022-12-18T05:07:00;38.27;;;18.07;;
12832;SDS011;6483;51.310;4.462;2022-12-18T05:09:26;36.57;;;17.20;;
12832;SDS011;6483;51.310;4.462;2022-12-18T05:11:52;36.93;;;18.20;;
12832;SDS011;6483;51.310;4.462;2022-12-18T05:14:19;43.57;;;18.00;;
12832;SDS011;6483;51.310;4.462;2022-12-18T05:16:44;35.77;;;18.00;;
12832;SDS011;6483;51.310;4.462;2022-12-18T05:19:14;38.20;;;17.27;;
12832;SDS011;6483;51.310;4.462;2022-12-18T05:21:42;35.17;;;16.40;;
12832;SDS011;6483;51.310;4.462;2022-12-18T05:24:11;38.43;;;18.77;;
12832;SDS011;6483;51.310;4.462;2022-12-18T05:26:36;37.37;;;16.73;;
12832;SDS011;6483;51.310;4.462;2022-12-18T05:29:02;34.43;;;17.53;;
12832;SDS011;6483;51.310;4.462;2022-12-18T05:31:31;40.30;;;15.57;;
12832;SDS011;6483;51.310;4.462;2022-12-18T05:34:04;37.23;;;16.60;;
12832;SDS011;6483;51.310;4.462;2022-12-18T05:36:33;36.70;;;17.77;;
12832;SDS011;6483;51.310;4.462;2022-12-18T05:39:03;38.23;;;17.67;;
12832;SDS011;6483;51.310;4.462;2022-12-18T05:41:29;35.87;;;15.70;;
12832;SDS011;6483;51.310;4.462;2022-12-18T05:43:55;36.50;;;15.97;;
12832;SDS011;6483;51.310;4.462;2022-12-18T05:46:24;32.87;;;16.40;;
12832;SDS011;6483;51.310;4.462;2022-12-18T05:48:52;35.13;;;16.57;;
12832;SDS011;6483;51.310;4.462;2022-12-18T05:51:19;36.47;;;16.60;;
12832;SDS011;6483;51.310;4.462;2022-12-18T05:53:46;39.87;;;15.70;;
12832;SDS011;6483;51.310;4.462;2022-12-18T05:56:22;34.30;;;16.70;;
12832;SDS011;6483;51.310;4.462;2022-12-18T05:58:51;36.77;;;17.27;;
12832;SDS011;6483;51.310;4.462;2022-12-18T06:01:21;33.63;;;15.30;;
12832;SDS011;6483;51.310;4.462;2022-12-18T06:03:49;33.33;;;16.00;;
12832;SDS011;6483;51.310;4.462;2022-12-18T06:06:16;30.87;;;15.63;;
12832;SDS011;6483;51.310;4.462;2022-12-18T06:09:01;35.47;;;16.93;;
12832;SDS011;6483;51.310;4.462;2022-12-18T06:11:33;36.73;;;16.00;;
12832;SDS011;6483;51.310;4.462;2022-12-18T06:13:59;36.40;;;15.80;;
12832;SDS011;6483;51.310;4.462;2022-12-18T06:16:27;27.97;;;14.90;;
12832;SDS011;6483;51.310;4.462;2022-12-18T06:18:57;34.07;;;16.87;;
12832;SDS011;6483;51.310;4.462;2022-12-18T06:21:24;35.03;;;15.50;;
12832;SDS011;6483;51.310;4.462;2022-12-18T06:23:51;33.03;;;15.63;;
12832;SDS011;6483;51.310;4.462;2022-12-18T06:26:16;31.63;;;14.27;;
12832;SDS011;6483;51.310;4.462;2022-12-18T06:28:45;36.37;;;15.83;;
12832;SDS011;6483;51.310;4.462;2022-12-18T06:31:11;35.50;;;17.33;;
12832;SDS011;6483;51.310;4.462;2022-12-18T06:33:37;30.40;;;14.97;;
12832;SDS011;6483;51.310;4.462;2022-12-18T06:36:11;33.60;;;15.67;;
12832;SDS011;6483;51.310;4.462;2022-12-18T06:38:38;30.40;;;15.00;;
12832;SDS011;6483;51.310;4.462;2022-12-18T06:41:08;35.07;;;15.23;;
12832;SDS011;6483;51.310;4.462;2022-12-18T06:43:38;30.77;;;15.23;;
12832;SDS011;6483;51.310;4.462;2022-12-18T06:46:04;32.07;;;15.37;;
12832;SDS011;6483;51.310;4.462;2022-12-18T06:48:31;34.83;;;15.93;;
12832;SDS011;6483;51.310;4.462;2022-12-18T06:50:56;30.83;;;16.23;;
12832;SDS011;6483;51.310;4.462;2022-12-18T06:53:22;34.50;;;16.13;;
12832;SDS011;6483;51.310;4.462;2022-12-18T06:55:48;30.50;;;16.03;;
12832;SDS011;6483;51.310;4.462;2022-12-18T06:58:14;31.07;;;15.33;;
12832;SDS011;6483;51.310;4.462;2022-12-18T07:00:44;27.50;;;14.57;;
12832;SDS011;6483;51.310;4.462;2022-12-18T07:03:10;32.03;;;16.43;;
12832;SDS011;6483;51.310;4.462;2022-12-18T07:05:45;31.43;;;15.47;;
12832;SDS011;6483;51.310;4.462;2022-12-18T07:08:10;29.73;;;16.17;;
12832;SDS011;6483;51.310;4.462;2022-12-18T07:10:55;31.03;;;15.97;;
12832;SDS011;6483;51.310;4.462;2022-12-18T07:13:24;35.57;;;15.90;;
12832;SDS011;6483;51.310;4.462;2022-12-18T07:15:50;30.60;;;15.50;;
12832;SDS011;6483;51.310;4.462;2022-12-18T07:18:28;32.87;;;15.70;;
12832;SDS011;6483;51.310;4.462;2022-12-18T07:20:56;38.23;;;17.67;;
12832;SDS011;6483;51.310;4.462;2022-12-18T07:23:28;35.27;;;15.77;;
12832;SDS011;6483;51.310;4.462;2022-12-18T07:25:54;31.90;;;15.83;;
12832;SDS011;6483;51.310;4.462;2022-12-18T07:28:19;29.93;;;14.93;;
12832;SDS011;6483;51.310;4.462;2022-12-18T07:30:46;33.17;;;16.43;;
12832;SDS011;6483;51.310;4.462;2022-12-18T07:33:12;33.60;;;16.80;;
12832;SDS011;6483;51.310;4.462;2022-12-18T07:35:41;40.17;;;17.27;;
12832;SDS011;6483;51.310;4.462;2022-12-18T07:38:10;32.33;;;16.07;;
12832;SDS011;6483;51.310;4.462;2022-12-18T07:40:37;34.43;;;17.00;;
12832;SDS011;6483;51.310;4.462;2022-12-18T07:43:03;39.53;;;17.90;;
12832;SDS011;6483;51.310;4.462;2022-12-18T07:45:28;33.93;;;15.43;;
12832;SDS011;6483;51.310;4.462;2022-12-18T07:48:01;32.03;;;16.30;;
12832;SDS011;6483;51.310;4.462;2022-12-18T07:50:30;33.30;;;15.27;;
12832;SDS011;6483;51.310;4.462;2022-12-18T07:52:55;31.37;;;15.27;;
12832;SDS011;6483;51.310;4.462;2022-12-18T07:55:28;29.43;;;15.93;;
12832;SDS011;6483;51.310;4.462;2022-12-18T07:57:56;30.07;;;15.47;;
12832;SDS011;6483;51.310;4.462;2022-12-18T08:00:25;35.67;;;16.97;;
12832;SDS011;6483;51.310;4.462;2022-12-18T08:02:54;31.10;;;15.27;;
12832;SDS011;6483;51.310;4.462;2022-12-18T08:05:22;36.17;;;15.93;;
12832;SDS011;6483;51.310;4.462;2022-12-18T08:07:51;35.17;;;17.20;;
12832;SDS011;6483;51.310;4.462;2022-12-18T08:10:17;31.53;;;16.40;;
12832;SDS011;6483;51.310;4.462;2022-12-18T08:12:48;33.13;;;17.80;;
12832;SDS011;6483;51.310;4.462;2022-12-18T08:15:17;28.57;;;15.97;;
12832;SDS011;6483;51.310;4.462;2022-12-18T08:17:43;35.17;;;16.57;;
12832;SDS011;6483;51.310;4.462;2022-12-18T08:20:09;33.00;;;16.90;;
12832;SDS011;6483;51.310;4.462;2022-12-18T08:22:39;40.97;;;17.27;;
12832;SDS011;6483;51.310;4.462;2022-12-18T08:25:28;34.70;;;17.83;;
12832;SDS011;6483;51.310;4.462;2022-12-18T08:27:55;32.07;;;16.83;;
12832;SDS011;6483;51.310;4.462;2022-12-18T08:30:24;30.43;;;17.43;;
12832;SDS011;6483;51.310;4.462;2022-12-18T08:32:51;30.30;;;16.53;;
12832;SDS011;6483;51.310;4.462;2022-12-18T08:35:18;32.70;;;16.40;;
12832;SDS011;6483;51.310;4.462;2022-12-18T08:37:49;34.97;;;17.80;;
12832;SDS011;6483;51.310;4.462;2022-12-18T08:40:18;36.27;;;18.73;;
12832;SDS011;6483;51.310;4.462;2022-12-18T08:42:43;35.93;;;19.53;;
12832;SDS011;6483;51.310;4.462;2022-12-18T08:45:28;37.23;;;18.53;;
12832;SDS011;6483;51.310;4.462;2022-12-18T08:47:56;34.10;;;17.03;;
12832;SDS011;6483;51.310;4.462;2022-12-18T08:50:24;32.83;;;17.90;;
12832;SDS011;6483;51.310;4.462;2022-12-18T08:52:50;33.07;;;18.10;;
12832;SDS011;6483;51.310;4.462;2022-12-18T08:55:16;31.67;;;17.33;;
12832;SDS011;6483;51.310;4.462;2022-12-18T08:57:42;28.90;;;17.17;;
12832;SDS011;6483;51.310;4.462;2022-12-18T09:00:13;33.67;;;18.17;;
12832;SDS011;6483;51.310;4.462;2022-12-18T09:02:41;27.13;;;16.40;;
12832;SDS011;6483;51.310;4.462;2022-12-18T09:05:10;34.07;;;17.20;;
12832;SDS011;6483;51.310;4.462;2022-12-18T09:07:39;30.30;;;17.93;;
12832;SDS011;6483;51.310;4.462;2022-12-18T09:10:08;33.27;;;16.53;;
12832;SDS011;6483;51.310;4.462;2022-12-18T09:12:34;31.73;;;16.63;;
12832;SDS011;6483;51.310;4.462;2022-12-18T09:15:00;31.40;;;16.10;;
12832;SDS011;6483;51.310;4.462;2022-12-18T09:17:25;34.80;;;17.07;;
12832;SDS011;6483;51.310;4.462;2022-12-18T09:19:51;31.57;;;16.63;;
12832;SDS011;6483;51.310;4.462;2022-12-18T09:22:17;28.03;;;16.10;;
12832;SDS011;6483;51.310;4.462;2022-12-18T09:24:42;30.47;;;15.87;;
12832;SDS011;6483;51.310;4.462;2022-12-18T09:27:08;38.33;;;24.00;;
12832;SDS011;6483;51.310;4.462;2022-12-18T09:29:34;32.13;;;17.37;;
12832;SDS011;6483;51.310;4.462;2022-12-18T09:32:03;27.90;;;16.87;;
12832;SDS011;6483;51.310;4.462;2022-12-18T09:34:29;28.83;;;16.80;;
12832;SDS011;6483;51.310;4.462;2022-12-18T09:36:54;29.80;;;15.97;;
12832;SDS011;6483;51.310;4.462;2022-12-18T09:39:20;26.43;;;16.27;;
12832;SDS011;6483;51.310;4.462;2022-12-18T09:44:29;29.90;;;15.83;;
12832;SDS011;6483;51.310;4.462;2022-12-18T09:50:02;27.77;;;16.27;;
12832;SDS011;6483;51.310;4.462;2022-12-18T09:52:44;25.47;;;14.10;;
12832;SDS011;6483;51.310;4.462;2022-12-18T09:55:24;24.90;;;13.97;;
12832;SDS011;6483;51.310;4.462;2022-12-18T09:57:58;21.40;;;13.93;;
12832;SDS011;6483;51.310;4.462;2022-12-18T10:00:30;21.57;;;12.17;;
12832;SDS011;6483;51.310;4.462;2022-12-18T10:03:08;26.63;;;13.03;;
12832;SDS011;6483;51.310;4.462;2022-12-18T10:08:26;21.43;;;13.10;;
12832;SDS011;6483;51.310;4.462;2022-12-18T10:11:27;20.40;;;11.73;;
12832;SDS011;6483;51.310;4.462;2022-12-18T10:14:09;27.27;;;14.90;;
12832;SDS011;6483;51.310;4.462;2022-12-18T10:19:53;21.90;;;13.40;;
12832;SDS011;6483;51.310;4.462;2022-12-18T10:25:28;22.73;;;11.90;;
12832;SDS011;6483;51.310;4.462;2022-12-18T10:28:18;20.03;;;12.17;;
12832;SDS011;6483;51.310;4.462;2022-12-18T10:30:46;20.40;;;12.73;;
12832;SDS011;6483;51.310;4.462;2022-12-18T10:33:22;20.50;;;12.13;;
12832;SDS011;6483;51.310;4.462;2022-12-18T10:35:53;23.33;;;13.33;;
12832;SDS011;6483;51.310;4.462;2022-12-18T10:38:26;24.00;;;15.07;;
12832;SDS011;6483;51.310;4.462;2022-12-18T10:43:20;20.87;;;12.43;;
12832;SDS011;6483;51.310;4.462;2022-12-18T10:48:34;22.23;;;12.40;;
12832;SDS011;6483;51.310;4.462;2022-12-18T10:51:28;22.90;;;13.27;;
12832;SDS011;6483;51.310;4.462;2022-12-18T10:56:30;25.97;;;12.63;;
12832;SDS011;6483;51.310;4.462;2022-12-18T10:58:59;28.10;;;13.50;;
12832;SDS011;6483;51.310;4.462;2022-12-18T11:01:46;26.50;;;13.70;;
12832;SDS011;6483;51.310;4.462;2022-12-18T11:04:29;19.67;;;11.60;;
12832;SDS011;6483;51.310;4.462;2022-12-18T11:07:00;24.07;;;12.13;;
12832;SDS011;6483;51.310;4.462;2022-12-18T11:09:33;20.73;;;11.47;;
12832;SDS011;6483;51.310;4.462;2022-12-18T11:12:04;22.30;;;12.90;;
12832;SDS011;6483;51.310;4.462;2022-12-18T11:14:52;23.60;;;15.10;;
12832;SDS011;6483;51.310;4.462;2022-12-18T11:17:29;25.43;;;13.93;;
12832;SDS011;6483;51.310;4.462;2022-12-18T11:20:02;17.80;;;10.37;;
12832;SDS011;6483;51.310;4.462;2022-12-18T11:22:32;20.53;;;11.73;;
12832;SDS011;6483;51.310;4.462;2022-12-18T11:28:03;21.60;;;11.33;;
12832;SDS011;6483;51.310;4.462;2022-12-18T11:30:36;19.03;;;10.97;;
12832;SDS011;6483;51.310;4.462;2022-12-18T11:33:10;17.53;;;10.90;;
12832;SDS011;6483;51.310;4.462;2022-12-18T11:35:46;21.53;;;11.50;;
12832;SDS011;6483;51.310;4.462;2022-12-18T11:38:22;19.33;;;10.60;;
12832;SDS011;6483;51.310;4.462;2022-12-18T11:46:24;18.83;;;10.67;;
12832;SDS011;6483;51.310;4.462;2022-12-18T11:49:15;18.10;;;11.33;;
12832;SDS011;6483;51.310;4.462;2022-12-18T11:52:09;20.37;;;11.10;;
12832;SDS011;6483;51.310;4.462;2022-12-18T11:54:55;18.37;;;11.20;;
12832;SDS011;6483;51.310;4.462;2022-12-18T12:00:19;21.70;;;10.87;;
12832;SDS011;6483;51.310;4.462;2022-12-18T12:03:14;20.87;;;12.57;;
12832;SDS011;6483;51.310;4.462;2022-12-18T12:16:51;23.70;;;13.27;;
12832;SDS011;6483;51.310;4.462;2022-12-18T12:25:56;17.67;;;10.97;;
12832;SDS011;6483;51.310;4.462;2022-12-18T12:37:32;20.90;;;11.93;;
12832;SDS011;6483;51.310;4.462;2022-12-18T12:40:14;21.20;;;12.77;;
12832;SDS011;6483;51.310;4.462;2022-12-18T12:42:47;24.40;;;13.97;;
12832;SDS011;6483;51.310;4.462;2022-12-18T12:45:41;32.03;;;18.90;;
12832;SDS011;6483;51.310;4.462;2022-12-18T12:51:22;25.73;;;14.83;;
12832;SDS011;6483;51.310;4.462;2022-12-18T12:54:01;82.17;;;34.93;;
12832;SDS011;6483;51.310;4.462;2022-12-18T12:56:50;47.60;;;22.00;;
12832;SDS011;6483;51.310;4.462;2022-12-18T12:59:49;60.07;;;26.30;;
12832;SDS011;6483;51.310;4.462;2022-12-18T13:05:23;43.20;;;22.77;;
12832;SDS011;6483;51.310;4.462;2022-12-18T13:08:03;26.17;;;14.80;;
12832;SDS011;6483;51.310;4.462;2022-12-18T13:10:52;24.20;;;13.23;;
12832;SDS011;6483;51.310;4.462;2022-12-18T13:13:50;18.93;;;11.57;;
12832;SDS011;6483;51.310;4.462;2022-12-18T13:16:24;23.13;;;12.50;;
12832;SDS011;6483;51.310;4.462;2022-12-18T13:18:54;19.83;;;12.13;;
12832;SDS011;6483;51.310;4.462;2022-12-18T13:21:30;22.90;;;12.33;;
12832;SDS011;6483;51.310;4.462;2022-12-18T13:27:31;31.33;;;18.57;;
12832;SDS011;6483;51.310;4.462;2022-12-18T13:38:42;25.30;;;16.10;;
12832;SDS011;6483;51.310;4.462;2022-12-18T13:43:45;20.10;;;12.27;;
12832;SDS011;6483;51.310;4.462;2022-12-18T13:46:20;22.17;;;13.13;;
12832;SDS011;6483;51.310;4.462;2022-12-18T13:52:16;23.53;;;14.57;;
12832;SDS011;6483;51.310;4.462;2022-12-18T13:54:50;27.30;;;15.80;;
12832;SDS011;6483;51.310;4.462;2022-12-18T14:00:25;36.23;;;20.40;;
12832;SDS011;6483;51.310;4.462;2022-12-18T14:02:53;30.40;;;17.83;;
12832;SDS011;6483;51.310;4.462;2022-12-18T14:05:23;33.40;;;20.57;;
12832;SDS011;6483;51.310;4.462;2022-12-18T14:08:18;32.50;;;18.23;;
12832;SDS011;6483;51.310;4.462;2022-12-18T14:10:47;24.90;;;15.03;;
12832;SDS011;6483;51.310;4.462;2022-12-18T14:13:57;24.03;;;15.10;;
12832;SDS011;6483;51.310;4.462;2022-12-18T14:16:11;30.33;;;16.33;;
12832;SDS011;6483;51.310;4.462;2022-12-18T14:21:29;59.47;;;31.00;;
12832;SDS011;6483;51.310;4.462;2022-12-18T14:26:56;53.63;;;29.53;;
12832;SDS011;6483;51.310;4.462;2022-12-18T14:29:44;51.47;;;29.03;;
12832;SDS011;6483;51.310;4.462;2022-12-18T14:32:17;29.97;;;16.20;;
12832;SDS011;6483;51.310;4.462;2022-12-18T14:34:47;26.23;;;16.33;;
12832;SDS011;6483;51.310;4.462;2022-12-18T14:37:16;26.20;;;14.73;;
12832;SDS011;6483;51.310;4.462;2022-12-18T14:39:57;35.33;;;20.90;;
12832;SDS011;6483;51.310;4.462;2022-12-18T14:42:42;24.37;;;14.43;;
12832;SDS011;6483;51.310;4.462;2022-12-18T14:50:45;23.63;;;14.50;;
12832;SDS011;6483;51.310;4.462;2022-12-18T14:53:32;25.70;;;15.57;;
12832;SDS011;6483;51.310;4.462;2022-12-18T14:56:14;28.37;;;16.03;;
12832;SDS011;6483;51.310;4.462;2022-12-18T14:59:42;28.03;;;18.33;;
12832;SDS011;6483;51.310;4.462;2022-12-18T15:01:58;24.00;;;14.57;;
12832;SDS011;6483;51.310;4.462;2022-12-18T15:04:43;25.17;;;14.47;;
12832;SDS011;6483;51.310;4.462;2022-12-18T15:07:18;26.13;;;15.10;;
12832;SDS011;6483;51.310;4.462;2022-12-18T15:12:45;24.93;;;15.40;;
12832;SDS011;6483;51.310;4.462;2022-12-18T15:20:41;28.57;;;16.90;;
12832;SDS011;6483;51.310;4.462;2022-12-18T15:26:14;26.20;;;16.27;;
12832;SDS011;6483;51.310;4.462;2022-12-18T15:28:51;30.43;;;17.07;;
12832;SDS011;6483;51.310;4.462;2022-12-18T15:31:22;24.53;;;14.30;;
12832;SDS011;6483;51.310;4.462;2022-12-18T15:36:18;29.70;;;16.93;;
12832;SDS011;6483;51.310;4.462;2022-12-18T15:38:46;28.10;;;16.80;;
12832;SDS011;6483;51.310;4.462;2022-12-18T15:41:14;28.87;;;17.57;;
12832;SDS011;6483;51.310;4.462;2022-12-18T15:43:44;39.30;;;20.33;;
12832;SDS011;6483;51.310;4.462;2022-12-18T15:46:12;34.00;;;20.97;;
12832;SDS011;6483;51.310;4.462;2022-12-18T15:48:46;31.30;;;18.73;;
12832;SDS011;6483;51.310;4.462;2022-12-18T15:51:15;37.40;;;22.00;;
12832;SDS011;6483;51.310;4.462;2022-12-18T15:54:01;35.07;;;19.20;;
12832;SDS011;6483;51.310;4.462;2022-12-18T15:56:28;29.53;;;16.80;;
12832;SDS011;6483;51.310;4.462;2022-12-18T15:59:16;29.70;;;16.93;;
12832;SDS011;6483;51.310;4.462;2022-12-18T16:01:46;48.57;;;27.93;;
12832;SDS011;6483;51.310;4.462;2022-12-18T16:04:14;34.63;;;21.23;;
12832;SDS011;6483;51.310;4.462;2022-12-18T16:06:42;57.00;;;39.80;;
12832;SDS011;6483;51.310;4.462;2022-12-18T16:09:11;143.63;;;109.17;;
12832;SDS011;6483;51.310;4.462;2022-12-18T16:11:37;41.10;;;26.83;;
12832;SDS011;6483;51.310;4.462;2022-12-18T16:14:18;36.37;;;22.83;;
12832;SDS011;6483;51.310;4.462;2022-12-18T16:16:52;33.83;;;18.60;;
12832;SDS011;6483;51.310;4.462;2022-12-18T16:19:20;30.37;;;17.70;;
12832;SDS011;6483;51.310;4.462;2022-12-18T16:21:46;33.90;;;19.50;;
12832;SDS011;6483;51.310;4.462;2022-12-18T16:24:18;36.57;;;22.13;;
12832;SDS011;6483;51.310;4.462;2022-12-18T16:26:49;27.50;;;17.03;;
12832;SDS011;6483;51.310;4.462;2022-12-18T16:29:18;34.27;;;21.00;;
12832;SDS011;6483;51.310;4.462;2022-12-18T16:31:49;30.10;;;17.30;;
12832;SDS011;6483;51.310;4.462;2022-12-18T16:34:20;30.57;;;18.67;;
12832;SDS011;6483;51.310;4.462;2022-12-18T16:36:55;29.97;;;18.17;;
12832;SDS011;6483;51.310;4.462;2022-12-18T16:39:26;29.67;;;17.73;;
12832;SDS011;6483;51.310;4.462;2022-12-18T16:41:52;28.57;;;16.87;;
12832;SDS011;6483;51.310;4.462;2022-12-18T16:44:19;38.63;;;21.57;;
12832;SDS011;6483;51.310;4.462;2022-12-18T16:46:45;30.00;;;18.43;;
12832;SDS011;6483;51.310;4.462;2022-12-18T16:49:12;33.77;;;20.13;;
12832;SDS011;6483;51.310;4.462;2022-12-18T16:51:38;34.37;;;17.80;;
12832;SDS011;6483;51.310;4.462;2022-12-18T16:54:08;32.90;;;19.77;;
12832;SDS011;6483;51.310;4.462;2022-12-18T16:56:34;32.13;;;18.33;;
12832;SDS011;6483;51.310;4.462;2022-12-18T16:59:00;29.40;;;17.90;;
12832;SDS011;6483;51.310;4.462;2022-12-18T17:01:28;32.10;;;19.07;;
12832;SDS011;6483;51.310;4.462;2022-12-18T17:03:59;29.37;;;18.00;;
12832;SDS011;6483;51.310;4.462;2022-12-18T17:06:30;30.83;;;18.70;;
12832;SDS011;6483;51.310;4.462;2022-12-18T17:08:59;28.10;;;16.77;;
12832;SDS011;6483;51.310;4.462;2022-12-18T17:11:28;31.37;;;16.83;;
12832;SDS011;6483;51.310;4.462;2022-12-18T17:13:58;26.43;;;16.40;;
12832;SDS011;6483;51.310;4.462;2022-12-18T17:16:24;29.70;;;17.80;;
12832;SDS011;6483;51.310;4.462;2022-12-18T17:18:51;33.10;;;18.37;;
12832;SDS011;6483;51.310;4.462;2022-12-18T17:21:18;34.27;;;19.27;;